sensor_id;sensor_type;location;lat;lon;timestamp;pressure;altitude;pressure_sealevel;temperature;humidity
10806;BME280;5455;53.224;6.000;2023-02-02T00:01:29;101803.25;;;4.70;100.00
10806;BME280;5455;53.224;6.000;2023-02-02T00:03:56;101808.13;;;4.73;100.00
10806;BME280;5455;53.224;6.000;2023-02-02T00:06:25;101819.28;;;4.77;100.00
10806;BME280;5455;53.224;6.000;2023-02-02T00:08:54;101816.16;;;4.83;100.00
10806;BME280;5455;53.224;6.000;2023-02-02T00:11:23;101819.69;;;4.84;100.00
10806;BME280;5455;53.224;6.000;2023-02-02T00:13:50;101821.47;;;4.93;100.00
10806;BME280;5455;53.224;6.000;2023-02-02T00:18:55;101824.84;;;5.04;100.00
10806;BME280;5455;53.224;6.000;2023-02-02T00:21:23;101815.53;;;5.05;100.00
10806;BME280;5455;53.224;6.000;2023-02-02T00:23:50;101819.63;;;5.08;100.00
10806;BME280;5455;53.224;6.000;2023-02-02T00:26:18;101824.47;;;5.11;100.00
10806;BME280;5455;53.224;6.000;2023-02-02T00:28:45;101809.09;;;5.15;100.00
10806;BME280;5455;53.224;6.000;2023-02-02T00:31:12;101821.88;;;5.19;100.00
10806;BME280;5455;53.224;6.000;2023-02-02T00:33:44;101827.75;;;5.26;100.00
10806;BME280;5455;53.224;6.000;2023-02-02T00:36:11;101828.19;;;5.33;100.00
10806;BME280;5455;53.224;6.000;2023-02-02T00:38:38;101830.81;;;5.38;100.00
10806;BME280;5455;53.224;6.000;2023-02-02T00:41:05;101831.03;;;5.42;100.00
10806;BME280;5455;53.224;6.000;2023-02-02T00:43:33;101837.81;;;5.44;100.00
10806;BME280;5455;53.224;6.000;2023-02-02T00:46:00;101829.56;;;5.49;100.00
10806;BME280;5455;53.224;6.000;2023-02-02T00:48:27;101834.50;;;5.47;100.00
10806;BME280;5455;53.224;6.000;2023-02-02T00:50:54;101837.44;;;5.51;100.00
10806;BME280;5455;53.224;6.000;2023-02-02T00:53:21;101839.28;;;5.55;100.00
10806;BME280;5455;53.224;6.000;2023-02-02T00:55:49;101842.03;;;5.55;100.00
10806;BME280;5455;53.224;6.000;2023-02-02T00:58:16;101834.44;;;5.52;100.00
10806;BME280;5455;53.224;6.000;2023-02-02T01:00:43;101839.56;;;5.54;100.00
10806;BME280;5455;53.224;6.000;2023-02-02T01:03:10;101842.53;;;5.57;100.00
10806;BME280;5455;53.224;6.000;2023-02-02T01:05:39;101841.09;;;5.60;100.00
10806;BME280;5455;53.224;6.000;2023-02-02T01:08:06;101852.56;;;5.62;100.00
10806;BME280;5455;53.224;6.000;2023-02-02T01:10:34;101857.53;;;5.60;100.00
10806;BME280;5455;53.224;6.000;2023-02-02T01:13:01;101859.75;;;5.58;100.00
10806;BME280;5455;53.224;6.000;2023-02-02T01:15:30;101854.56;;;5.56;100.00
10806;BME280;5455;53.224;6.000;2023-02-02T01:17:57;101868.34;;;5.51;100.00
10806;BME280;5455;53.224;6.000;2023-02-02T01:20:24;101875.22;;;5.49;100.00
10806;BME280;5455;53.224;6.000;2023-02-02T01:22:51;101868.13;;;5.48;100.00
10806;BME280;5455;53.224;6.000;2023-02-02T01:25:18;101872.72;;;5.52;100.00
10806;BME280;5455;53.224;6.000;2023-02-02T01:27:46;101867.25;;;5.52;100.00
10806;BME280;5455;53.224;6.000;2023-02-02T01:30:13;101862.50;;;5.58;100.00
10806;BME280;5455;53.224;6.000;2023-02-02T01:32:40;101858.63;;;5.59;100.00
10806;BME280;5455;53.224;6.000;2023-02-02T01:35:07;101862.19;;;5.60;100.00
10806;BME280;5455;53.224;6.000;2023-02-02T01:37:35;101863.31;;;5.59;100.00
10806;BME280;5455;53.224;6.000;2023-02-02T01:40:05;101859.66;;;5.63;100.00
10806;BME280;5455;53.224;6.000;2023-02-02T01:42:32;101855.22;;;5.67;100.00
10806;BME280;5455;53.224;6.000;2023-02-02T01:47:41;101864.13;;;5.73;100.00
10806;BME280;5455;53.224;6.000;2023-02-02T01:50:10;101865.97;;;5.77;100.00
10806;BME280;5455;53.224;6.000;2023-02-02T01:52:40;101871.97;;;5.79;100.00
10806;BME280;5455;53.224;6.000;2023-02-02T01:55:10;101863.94;;;5.83;100.00
10806;BME280;5455;53.224;6.000;2023-02-02T01:57:45;101863.38;;;5.86;100.00
10806;BME280;5455;53.224;6.000;2023-02-02T02:00:17;101866.84;;;5.91;100.00
10806;BME280;5455;53.224;6.000;2023-02-02T02:02:54;101864.59;;;5.93;100.00
10806;BME280;5455;53.224;6.000;2023-02-02T02:05:32;101872.50;;;5.95;100.00
10806;BME280;5455;53.224;6.000;2023-02-02T02:08:15;101865.41;;;5.94;100.00
10806;BME280;5455;53.224;6.000;2023-02-02T02:10:43;101868.38;;;5.97;100.00
10806;BME280;5455;53.224;6.000;2023-02-02T02:13:10;101874.03;;;6.01;100.00
10806;BME280;5455;53.224;6.000;2023-02-02T02:16:28;101870.06;;;6.07;100.00
10806;BME280;5455;53.224;6.000;2023-02-02T02:22:00;101874.34;;;6.13;100.00
10806;BME280;5455;53.224;6.000;2023-02-02T02:27:59;101868.66;;;6.23;100.00
10806;BME280;5455;53.224;6.000;2023-02-02T02:36:52;101869.38;;;6.29;100.00
10806;BME280;5455;53.224;6.000;2023-02-02T02:39:26;101864.22;;;6.27;100.00
10806;BME280;5455;53.224;6.000;2023-02-02T02:42:03;101869.69;;;6.27;100.00
10806;BME280;5455;53.224;6.000;2023-02-02T02:44:32;101879.81;;;6.27;100.00
10806;BME280;5455;53.224;6.000;2023-02-02T02:47:01;101882.56;;;6.27;100.00
10806;BME280;5455;53.224;6.000;2023-02-02T02:49:28;101880.84;;;6.31;100.00
10806;BME280;5455;53.224;6.000;2023-02-02T02:51:55;101884.91;;;6.33;100.00
10806;BME280;5455;53.224;6.000;2023-02-02T02:54:30;101884.28;;;6.36;100.00
10806;BME280;5455;53.224;6.000;2023-02-02T03:00:13;101898.47;;;6.38;100.00
10806;BME280;5455;53.224;6.000;2023-02-02T03:09:14;101899.09;;;6.22;100.00
10806;BME280;5455;53.224;6.000;2023-02-02T03:11:21;101896.44;;;6.17;100.00
10806;BME280;5455;53.224;6.000;2023-02-02T03:13:48;101904.97;;;6.15;100.00
10806;BME280;5455;53.224;6.000;2023-02-02T03:16:16;101900.13;;;6.12;100.00
10806;BME280;5455;53.224;6.000;2023-02-02T03:18:43;101890.88;;;6.08;100.00
10806;BME280;5455;53.224;6.000;2023-02-02T03:21:10;101899.69;;;6.05;100.00
10806;BME280;5455;53.224;6.000;2023-02-02T03:23:37;101895.53;;;6.07;100.00
10806;BME280;5455;53.224;6.000;2023-02-02T03:26:05;101891.19;;;6.06;100.00
10806;BME280;5455;53.224;6.000;2023-02-02T03:28:33;101896.06;;;6.09;100.00
10806;BME280;5455;53.224;6.000;2023-02-02T03:31:00;101901.22;;;6.11;100.00
10806;BME280;5455;53.224;6.000;2023-02-02T03:33:29;101897.66;;;6.10;100.00
10806;BME280;5455;53.224;6.000;2023-02-02T03:35:57;101902.13;;;6.06;100.00
10806;BME280;5455;53.224;6.000;2023-02-02T03:38:24;101896.66;;;6.06;100.00
10806;BME280;5455;53.224;6.000;2023-02-02T03:40:51;101901.94;;;6.03;100.00
10806;BME280;5455;53.224;6.000;2023-02-02T03:43:22;101902.00;;;5.98;100.00
10806;BME280;5455;53.224;6.000;2023-02-02T03:46:00;101914.09;;;5.97;100.00
10806;BME280;5455;53.224;6.000;2023-02-02T03:48:27;101911.13;;;5.93;100.00
10806;BME280;5455;53.224;6.000;2023-02-02T03:50:54;101915.78;;;5.93;100.00
10806;BME280;5455;53.224;6.000;2023-02-02T03:53:22;101909.00;;;5.90;100.00
10806;BME280;5455;53.224;6.000;2023-02-02T03:55:49;101909.59;;;5.87;100.00
10806;BME280;5455;53.224;6.000;2023-02-02T03:58:17;101920.31;;;5.84;100.00
10806;BME280;5455;53.224;6.000;2023-02-02T04:00:48;101917.88;;;5.82;100.00
10806;BME280;5455;53.224;6.000;2023-02-02T04:03:15;101917.34;;;5.80;100.00
10806;BME280;5455;53.224;6.000;2023-02-02T04:05:42;101920.09;;;5.80;100.00
10806;BME280;5455;53.224;6.000;2023-02-02T04:08:09;101920.41;;;5.79;100.00
10806;BME280;5455;53.224;6.000;2023-02-02T04:10:36;101918.25;;;5.76;100.00
10806;BME280;5455;53.224;6.000;2023-02-02T04:13:05;101927.56;;;5.75;100.00
10806;BME280;5455;53.224;6.000;2023-02-02T04:15:32;101909.56;;;5.74;100.00
10806;BME280;5455;53.224;6.000;2023-02-02T04:17:59;101909.84;;;5.72;100.00
10806;BME280;5455;53.224;6.000;2023-02-02T04:20:29;101919.47;;;5.70;100.00
10806;BME280;5455;53.224;6.000;2023-02-02T04:22:56;101921.88;;;5.71;100.00
10806;BME280;5455;53.224;6.000;2023-02-02T04:25:23;101924.34;;;5.73;100.00
10806;BME280;5455;53.224;6.000;2023-02-02T04:27:50;101918.88;;;5.73;100.00
10806;BME280;5455;53.224;6.000;2023-02-02T04:30:17;101927.34;;;5.71;100.00
10806;BME280;5455;53.224;6.000;2023-02-02T04:32:46;101923.31;;;5.69;100.00
10806;BME280;5455;53.224;6.000;2023-02-02T04:35:13;101927.78;;;5.65;100.00
10806;BME280;5455;53.224;6.000;2023-02-02T04:37:40;101929.38;;;5.66;100.00
10806;BME280;5455;53.224;6.000;2023-02-02T04:40:07;101925.03;;;5.65;100.00
10806;BME280;5455;53.224;6.000;2023-02-02T04:42:34;101929.97;;;5.63;100.00
10806;BME280;5455;53.224;6.000;2023-02-02T04:45:01;101928.66;;;5.60;100.00
10806;BME280;5455;53.224;6.000;2023-02-02T04:47:28;101929.75;;;5.59;100.00
10806;BME280;5455;53.224;6.000;2023-02-02T04:49:54;101931.97;;;5.57;100.00
10806;BME280;5455;53.224;6.000;2023-02-02T04:52:21;101930.34;;;5.56;100.00
10806;BME280;5455;53.224;6.000;2023-02-02T04:54:48;101927.13;;;5.54;100.00
10806;BME280;5455;53.224;6.000;2023-02-02T04:57:15;101925.28;;;5.49;100.00
10806;BME280;5455;53.224;6.000;2023-02-02T04:59:43;101937.00;;;5.50;100.00
10806;BME280;5455;53.224;6.000;2023-02-02T05:02:10;101934.00;;;5.51;100.00
10806;BME280;5455;53.224;6.000;2023-02-02T05:04:37;101930.44;;;5.51;100.00
10806;BME280;5455;53.224;6.000;2023-02-02T05:07:04;101930.75;;;5.49;100.00
10806;BME280;5455;53.224;6.000;2023-02-02T05:09:31;101933.78;;;5.48;100.00
10806;BME280;5455;53.224;6.000;2023-02-02T05:11:58;101937.00;;;5.50;100.00
10806;BME280;5455;53.224;6.000;2023-02-02T05:14:25;101941.16;;;5.47;100.00
10806;BME280;5455;53.224;6.000;2023-02-02T05:16:52;101941.97;;;5.48;100.00
10806;BME280;5455;53.224;6.000;2023-02-02T05:19:20;101940.66;;;5.45;100.00
10806;BME280;5455;53.224;6.000;2023-02-02T05:21:47;101936.81;;;5.46;100.00
10806;BME280;5455;53.224;6.000;2023-02-02T05:24:17;101942.06;;;5.43;100.00
10806;BME280;5455;53.224;6.000;2023-02-02T05:26:43;101941.84;;;5.39;100.00
10806;BME280;5455;53.224;6.000;2023-02-02T05:29:10;101944.88;;;5.38;100.00
10806;BME280;5455;53.224;6.000;2023-02-02T05:31:37;101944.88;;;5.38;100.00
10806;BME280;5455;53.224;6.000;2023-02-02T05:34:04;101946.50;;;5.39;100.00
10806;BME280;5455;53.224;6.000;2023-02-02T05:36:32;101941.03;;;5.39;100.00
10806;BME280;5455;53.224;6.000;2023-02-02T05:38:59;101935.88;;;5.37;100.00
10806;BME280;5455;53.224;6.000;2023-02-02T05:41:26;101938.06;;;5.35;100.00
10806;BME280;5455;53.224;6.000;2023-02-02T05:43:53;101943.03;;;5.33;100.00
10806;BME280;5455;53.224;6.000;2023-02-02T05:46:20;101943.03;;;5.33;100.00
10806;BME280;5455;53.224;6.000;2023-02-02T05:48:47;101940.59;;;5.32;100.00
10806;BME280;5455;53.224;6.000;2023-02-02T05:51:17;101943.03;;;5.33;100.00
10806;BME280;5455;53.224;6.000;2023-02-02T05:53:46;101939.41;;;5.38;100.00
10806;BME280;5455;53.224;6.000;2023-02-02T05:56:13;101935.88;;;5.37;100.00
10806;BME280;5455;53.224;6.000;2023-02-02T05:58:42;101936.38;;;5.39;100.00
10806;BME280;5455;53.224;6.000;2023-02-02T06:01:10;101936.38;;;5.39;100.00
10806;BME280;5455;53.224;6.000;2023-02-02T06:03:37;101940.75;;;5.40;100.00
10806;BME280;5455;53.224;6.000;2023-02-02T06:06:05;101942.88;;;5.43;100.00
10806;BME280;5455;53.224;6.000;2023-02-02T06:08:33;101940.66;;;5.45;100.00
10806;BME280;5455;53.224;6.000;2023-02-02T06:11:09;101936.00;;;5.46;100.00
10806;BME280;5455;53.224;6.000;2023-02-02T06:13:37;101943.06;;;5.47;100.00
10806;BME280;5455;53.224;6.000;2023-02-02T06:16:05;101940.06;;;5.48;100.00
10806;BME280;5455;53.224;6.000;2023-02-02T06:18:33;101936.28;;;5.44;100.00
10806;BME280;5455;53.224;6.000;2023-02-02T06:21:02;101948.78;;;5.50;100.00
10806;BME280;5455;53.224;6.000;2023-02-02T06:23:29;101952.91;;;5.48;100.00
10806;BME280;5455;53.224;6.000;2023-02-02T06:25:56;101952.91;;;5.48;100.00
10806;BME280;5455;53.224;6.000;2023-02-02T06:28:24;101954.56;;;5.49;100.00
10806;BME280;5455;53.224;6.000;2023-02-02T06:30:50;101958.63;;;5.51;100.00
10806;BME280;5455;53.224;6.000;2023-02-02T06:33:18;101961.63;;;5.50;100.00
10806;BME280;5455;53.224;6.000;2023-02-02T06:35:45;101967.63;;;5.52;100.00
10806;BME280;5455;53.224;6.000;2023-02-02T06:38:12;101969.25;;;5.53;100.00
10806;BME280;5455;53.224;6.000;2023-02-02T06:40:39;101963.56;;;5.49;100.00
10806;BME280;5455;53.224;6.000;2023-02-02T06:43:06;101966.59;;;5.48;100.00
10806;BME280;5455;53.224;6.000;2023-02-02T06:45:34;101970.44;;;5.47;100.00
10806;BME280;5455;53.224;6.000;2023-02-02T06:48:06;101979.44;;;5.47;100.00
10806;BME280;5455;53.224;6.000;2023-02-02T06:50:36;101977.25;;;5.49;100.00
10806;BME280;5455;53.224;6.000;2023-02-02T06:53:04;101984.66;;;5.49;100.00
10806;BME280;5455;53.224;6.000;2023-02-02T06:55:32;101983.00;;;5.48;100.00
10806;BME280;5455;53.224;6.000;2023-02-02T06:57:59;101980.59;;;5.46;100.00
10806;BME280;5455;53.224;6.000;2023-02-02T07:00:28;101989.88;;;5.45;100.00
10806;BME280;5455;53.224;6.000;2023-02-02T07:02:56;101989.28;;;5.48;100.00
10806;BME280;5455;53.224;6.000;2023-02-02T07:05:24;101993.34;;;5.51;100.00
10806;BME280;5455;53.224;6.000;2023-02-02T07:07:56;101993.06;;;5.52;100.00
10806;BME280;5455;53.224;6.000;2023-02-02T07:10:23;101992.84;;;5.49;100.00
10806;BME280;5455;53.224;6.000;2023-02-02T07:13:10;101989.28;;;5.48;100.00
10806;BME280;5455;53.224;6.000;2023-02-02T07:15:38;101999.13;;;5.49;100.00
10806;BME280;5455;53.224;6.000;2023-02-02T07:18:06;101998.81;;;5.51;100.00
10806;BME280;5455;53.224;6.000;2023-02-02T07:20:33;102001.06;;;5.49;100.00
10806;BME280;5455;53.224;6.000;2023-02-02T07:23:02;102017.75;;;5.47;100.00
10806;BME280;5455;53.224;6.000;2023-02-02T07:25:30;102016.66;;;5.48;100.00
10806;BME280;5455;53.224;6.000;2023-02-02T07:27:57;102020.19;;;5.49;100.00
10806;BME280;5455;53.224;6.000;2023-02-02T07:30:24;102017.97;;;5.51;100.00
10806;BME280;5455;53.224;6.000;2023-02-02T07:32:55;102017.69;;;5.52;100.00
10806;BME280;5455;53.224;6.000;2023-02-02T07:35:23;102016.56;;;5.53;100.00
10806;BME280;5455;53.224;6.000;2023-02-02T07:37:52;102021.81;;;5.50;100.00
10806;BME280;5455;53.224;6.000;2023-02-02T07:40:20;102026.69;;;5.53;100.00
10806;BME280;5455;53.224;6.000;2023-02-02T07:42:48;102026.09;;;5.56;100.00
10806;BME280;5455;53.224;6.000;2023-02-02T07:45:15;102025.81;;;5.57;100.00
10806;BME280;5455;53.224;6.000;2023-02-02T07:48:02;102024.72;;;5.59;100.00
10806;BME280;5455;53.224;6.000;2023-02-02T07:50:30;102038.00;;;5.65;100.00
10806;BME280;5455;53.224;6.000;2023-02-02T07:52:59;102044.22;;;5.71;100.00
10806;BME280;5455;53.224;6.000;2023-02-02T07:55:26;102049.38;;;5.72;100.00
10806;BME280;5455;53.224;6.000;2023-02-02T07:57:54;102047.56;;;5.68;100.00
10806;BME280;5455;53.224;6.000;2023-02-02T08:00:25;102052.44;;;5.71;100.00
10806;BME280;5455;53.224;6.000;2023-02-02T08:02:52;102058.94;;;5.75;100.00
10806;BME280;5455;53.224;6.000;2023-02-02T08:05:20;102057.22;;;5.79;100.00
10806;BME280;5455;53.224;6.000;2023-02-02T08:07:48;102069.19;;;5.83;100.00
10806;BME280;5455;53.224;6.000;2023-02-02T08:10:15;102064.78;;;5.87;100.00
10806;BME280;5455;53.224;6.000;2023-02-02T08:12:43;102066.13;;;5.89;100.00
10806;BME280;5455;53.224;6.000;2023-02-02T08:15:10;102077.78;;;5.95;100.00
10806;BME280;5455;53.224;6.000;2023-02-02T08:17:38;102072.03;;;5.96;100.00
10806;BME280;5455;53.224;6.000;2023-02-02T08:20:05;102070.41;;;5.95;100.00
10806;BME280;5455;53.224;6.000;2023-02-02T08:22:33;102076.69;;;5.96;100.00
10806;BME280;5455;53.224;6.000;2023-02-02T08:24:59;102079.34;;;6.01;100.00
10806;BME280;5455;53.224;6.000;2023-02-02T08:27:27;102080.88;;;6.07;100.00
10806;BME280;5455;53.224;6.000;2023-02-02T08:29:54;102082.75;;;6.12;100.00
10806;BME280;5455;53.224;6.000;2023-02-02T08:32:21;102085.69;;;6.15;100.00
10806;BME280;5455;53.224;6.000;2023-02-02T08:34:48;102083.78;;;6.16;100.00
10806;BME280;5455;53.224;6.000;2023-02-02T08:37:17;102090.03;;;6.16;100.00
10806;BME280;5455;53.224;6.000;2023-02-02T08:39:44;102093.22;;;6.23;100.00
10806;BME280;5455;53.224;6.000;2023-02-02T08:42:11;102095.47;;;6.21;100.00
10806;BME280;5455;53.224;6.000;2023-02-02T08:44:38;102101.66;;;6.27;100.00
10806;BME280;5455;53.224;6.000;2023-02-02T08:47:28;102107.88;;;6.32;100.00
10806;BME280;5455;53.224;6.000;2023-02-02T08:49:55;102117.94;;;6.37;100.00
10806;BME280;5455;53.224;6.000;2023-02-02T08:52:22;102115.69;;;6.39;100.00
10806;BME280;5455;53.224;6.000;2023-02-02T08:54:51;102122.81;;;6.40;100.00
10806;BME280;5455;53.224;6.000;2023-02-02T08:57:18;102127.88;;;6.46;100.00
10806;BME280;5455;53.224;6.000;2023-02-02T08:59:45;102136.69;;;6.43;100.00
10806;BME280;5455;53.224;6.000;2023-02-02T09:02:13;102136.19;;;6.41;100.00
10806;BME280;5455;53.224;6.000;2023-02-02T09:04:40;102133.47;;;6.41;100.00
10806;BME280;5455;53.224;6.000;2023-02-02T09:07:10;102137.84;;;6.42;100.00
10806;BME280;5455;53.224;6.000;2023-02-02T09:09:37;102130.94;;;6.45;100.00
10806;BME280;5455;53.224;6.000;2023-02-02T09:12:04;102131.34;;;6.52;100.00
10806;BME280;5455;53.224;6.000;2023-02-02T09:14:32;102134.91;;;6.52;100.00
10806;BME280;5455;53.224;6.000;2023-02-02T09:16:59;102133.31;;;6.65;100.00
10806;BME280;5455;53.224;6.000;2023-02-02T09:19:26;102135.47;;;6.68;100.00
10806;BME280;5455;53.224;6.000;2023-02-02T09:21:53;102144.00;;;6.80;100.00
10806;BME280;5455;53.224;6.000;2023-02-02T09:24:20;102149.22;;;6.82;100.00
10806;BME280;5455;53.224;6.000;2023-02-02T09:26:47;102147.25;;;6.82;100.00
10806;BME280;5455;53.224;6.000;2023-02-02T09:29:15;102150.81;;;6.83;100.00
10806;BME280;5455;53.224;6.000;2023-02-02T09:31:43;102149.00;;;6.92;100.00
10806;BME280;5455;53.224;6.000;2023-02-02T09:34:12;102153.81;;;7.00;100.00
10806;BME280;5455;53.224;6.000;2023-02-02T09:36:41;102149.25;;;7.09;100.00
10806;BME280;5455;53.224;6.000;2023-02-02T09:39:10;102153.91;;;7.08;100.00
10806;BME280;5455;53.224;6.000;2023-02-02T09:54:11;102172.00;;;7.23;100.00
10806;BME280;5455;53.224;6.000;2023-02-02T09:56:23;102165.28;;;7.15;100.00
10806;BME280;5455;53.224;6.000;2023-02-02T09:58:53;102174.75;;;7.23;100.00
10806;BME280;5455;53.224;6.000;2023-02-02T10:01:30;102172.22;;;7.27;100.00
10806;BME280;5455;53.224;6.000;2023-02-02T10:06:47;102184.81;;;7.41;100.00
10806;BME280;5455;53.224;6.000;2023-02-02T10:20:40;102203.59;;;7.34;100.00
10806;BME280;5455;53.224;6.000;2023-02-02T10:23:23;102199.22;;;7.33;100.00
10806;BME280;5455;53.224;6.000;2023-02-02T10:25:56;102207.56;;;7.28;100.00
10806;BME280;5455;53.224;6.000;2023-02-02T10:28:33;102196.75;;;7.18;100.00
10806;BME280;5455;53.224;6.000;2023-02-02T10:31:16;102196.75;;;7.18;100.00
10806;BME280;5455;53.224;6.000;2023-02-02T10:33:54;102201.25;;;7.28;100.00
10806;BME280;5455;53.224;6.000;2023-02-02T10:36:49;102209.19;;;7.29;100.00
10806;BME280;5455;53.224;6.000;2023-02-02T10:39:33;102202.56;;;7.30;100.00
10806;BME280;5455;53.224;6.000;2023-02-02T10:42:22;102203.72;;;7.29;100.00
10806;BME280;5455;53.224;6.000;2023-02-02T10:44:56;102207.44;;;7.33;100.00
10806;BME280;5455;53.224;6.000;2023-02-02T10:47:27;102209.09;;;7.34;100.00
10806;BME280;5455;53.224;6.000;2023-02-02T10:50:19;102210.81;;;7.30;100.00
10806;BME280;5455;53.224;6.000;2023-02-02T10:52:51;102210.94;;;7.39;100.00
10806;BME280;5455;53.224;6.000;2023-02-02T10:56:10;102212.97;;;7.47;100.00
10806;BME280;5455;53.224;6.000;2023-02-02T11:00:51;102215.00;;;7.41;100.00
10806;BME280;5455;53.224;6.000;2023-02-02T11:03:32;102216.72;;;7.51;100.00
10806;BME280;5455;53.224;6.000;2023-02-02T11:06:04;102227.19;;;7.62;100.00
10806;BME280;5455;53.224;6.000;2023-02-02T11:08:54;102219.47;;;7.64;100.00
10806;BME280;5455;53.224;6.000;2023-02-02T11:11:30;102218.16;;;7.62;100.00
10806;BME280;5455;53.224;6.000;2023-02-02T11:14:02;102227.19;;;7.62;100.00
10806;BME280;5455;53.224;6.000;2023-02-02T11:16:36;102223.94;;;7.60;100.00
10806;BME280;5455;53.224;6.000;2023-02-02T11:21:47;102211.03;;;7.61;100.00
10806;BME280;5455;53.224;6.000;2023-02-02T11:27:10;102218.88;;;7.54;100.00
10806;BME280;5455;53.224;6.000;2023-02-02T11:35:13;102216.00;;;7.45;100.00
10806;BME280;5455;53.224;6.000;2023-02-02T11:38:12;102214.28;;;7.49;100.00
10806;BME280;5455;53.224;6.000;2023-02-02T11:40:45;102216.31;;;7.57;100.00
10806;BME280;5455;53.224;6.000;2023-02-02T11:43:36;102219.47;;;7.51;100.00
10806;BME280;5455;53.224;6.000;2023-02-02T11:46:19;102203.41;;;7.44;100.00
10806;BME280;5455;53.224;6.000;2023-02-02T11:49:00;102206.03;;;7.49;100.00
10806;BME280;5455;53.224;6.000;2023-02-02T11:51:29;102204.31;;;7.53;100.00
10806;BME280;5455;53.224;6.000;2023-02-02T11:54:15;102201.28;;;7.41;100.00
10806;BME280;5455;53.224;6.000;2023-02-02T11:56:47;102209.41;;;7.33;100.00
10806;BME280;5455;53.224;6.000;2023-02-02T11:59:28;102212.63;;;7.21;100.00
10806;BME280;5455;53.224;6.000;2023-02-02T12:04:50;102208.44;;;7.10;100.00
10806;BME280;5455;53.224;6.000;2023-02-02T12:07:20;102201.34;;;7.09;100.00
10806;BME280;5455;53.224;6.000;2023-02-02T12:09:48;102205.09;;;7.13;100.00
10806;BME280;5455;53.224;6.000;2023-02-02T12:15:24;102196.09;;;7.26;100.00
10806;BME280;5455;53.224;6.000;2023-02-02T12:21:04;102191.31;;;7.32;100.00
10806;BME280;5455;53.224;6.000;2023-02-02T12:23:45;102183.97;;;7.27;100.00
10806;BME280;5455;53.224;6.000;2023-02-02T12:26:29;102185.22;;;7.35;100.00
10806;BME280;5455;53.224;6.000;2023-02-02T12:32:01;102174.84;;;7.32;100.00
10806;BME280;5455;53.224;6.000;2023-02-02T12:37:52;102175.97;;;7.31;100.00
10806;BME280;5455;53.224;6.000;2023-02-02T12:46:05;102167.53;;;7.41;100.00
10806;BME280;5455;53.224;6.000;2023-02-02T12:51:15;102163.34;;;7.43;100.00
10806;BME280;5455;53.224;6.000;2023-02-02T12:59:59;102154.09;;;7.39;100.00
10806;BME280;5455;53.224;6.000;2023-02-02T13:05:54;102160.00;;;7.46;100.00
10806;BME280;5455;53.224;6.000;2023-02-02T13:08:28;102155.34;;;7.47;100.00
10806;BME280;5455;53.224;6.000;2023-02-02T13:11:20;102158.69;;;7.44;100.00
10806;BME280;5455;53.224;6.000;2023-02-02T13:14:10;102165.06;;;7.39;100.00
10806;BME280;5455;53.224;6.000;2023-02-02T13:16:42;102154.91;;;7.40;100.00
10806;BME280;5455;53.224;6.000;2023-02-02T13:19:28;102144.97;;;7.30;100.00
10806;BME280;5455;53.224;6.000;2023-02-02T13:22:01;102150.84;;;7.37;100.00
10806;BME280;5455;53.224;6.000;2023-02-02T13:24:32;102153.94;;;7.36;100.00
10806;BME280;5455;53.224;6.000;2023-02-02T13:27:03;102150.66;;;7.34;100.00
10806;BME280;5455;53.224;6.000;2023-02-02T13:29:45;102156.75;;;7.31;100.00
10806;BME280;5455;53.224;6.000;2023-02-02T13:32:56;102158.59;;;7.35;100.00
10806;BME280;5455;53.224;6.000;2023-02-02T13:35:35;102150.97;;;7.32;100.00
10806;BME280;5455;53.224;6.000;2023-02-02T13:38:13;102142.13;;;7.35;100.00
10806;BME280;5455;53.224;6.000;2023-02-02T13:40:43;102151.69;;;7.38;100.00
10806;BME280;5455;53.224;6.000;2023-02-02T13:49:08;102150.13;;;7.59;100.00
10806;BME280;5455;53.224;6.000;2023-02-02T13:51:59;102147.59;;;7.62;100.00
10806;BME280;5455;53.224;6.000;2023-02-02T13:58:12;102137.13;;;7.64;100.00
10806;BME280;5455;53.224;6.000;2023-02-02T14:00:45;102140.56;;;7.70;100.00
10806;BME280;5455;53.224;6.000;2023-02-02T14:06:05;102144.53;;;7.64;100.00
10806;BME280;5455;53.224;6.000;2023-02-02T14:08:33;102139.66;;;7.61;100.00
10806;BME280;5455;53.224;6.000;2023-02-02T14:11:03;102146.47;;;7.63;100.00
10806;BME280;5455;53.224;6.000;2023-02-02T14:13:46;102143.41;;;7.65;100.00
10806;BME280;5455;53.224;6.000;2023-02-02T14:19:04;102158.25;;;7.64;100.00
10806;BME280;5455;53.224;6.000;2023-02-02T14:26:51;102155.84;;;7.62;100.00
10806;BME280;5455;53.224;6.000;2023-02-02T14:34:42;102157.34;;;7.68;100.00
10806;BME280;5455;53.224;6.000;2023-02-02T14:37:18;102161.81;;;7.64;100.00
10806;BME280;5455;53.224;6.000;2023-02-02T14:45:29;102158.25;;;7.64;100.00
10806;BME280;5455;53.224;6.000;2023-02-02T14:47:59;102163.44;;;7.65;100.00
10806;BME280;5455;53.224;6.000;2023-02-02T14:50:42;102161.22;;;7.67;100.00
10806;BME280;5455;53.224;6.000;2023-02-02T14:56:17;102160.38;;;7.67;100.00
10806;BME280;5455;53.224;6.000;2023-02-02T15:06:25;102165.47;;;7.73;100.00
10806;BME280;5455;53.224;6.000;2023-02-02T15:14:36;102174.03;;;7.72;100.00
10806;BME280;5455;53.224;6.000;2023-02-02T15:23:04;102181.94;;;7.73;100.00
10806;BME280;5455;53.224;6.000;2023-02-02T15:29:04;102186.13;;;7.71;100.00
10806;BME280;5455;53.224;6.000;2023-02-02T15:31:48;102181.44;;;7.71;100.00
10806;BME280;5455;53.224;6.000;2023-02-02T15:36:53;102201.28;;;7.68;100.00
10806;BME280;5455;53.224;6.000;2023-02-02T15:39:39;102192.72;;;7.70;100.00
10806;BME280;5455;53.224;6.000;2023-02-02T15:42:15;102193.53;;;7.70;100.00
10806;BME280;5455;53.224;6.000;2023-02-02T15:45:02;102196.47;;;7.74;100.00
10806;BME280;5455;53.224;6.000;2023-02-02T15:47:34;102207.34;;;7.79;100.00
10806;BME280;5455;53.224;6.000;2023-02-02T15:50:16;102206.03;;;7.76;100.00
10806;BME280;5455;53.224;6.000;2023-02-02T15:52:48;102199.72;;;7.76;100.00
10806;BME280;5455;53.224;6.000;2023-02-02T15:55:23;102199.44;;;7.78;100.00
10806;BME280;5455;53.224;6.000;2023-02-02T15:57:54;102201.66;;;7.75;100.00
10806;BME280;5455;53.224;6.000;2023-02-02T16:00:32;102208.78;;;7.76;100.00